YPPH/PER METAR and TAF weather

Enter ICAO airport designator
Station Type Date Time Source
YPPH METAR 2018/12/13 06:00 UTC NOAA

YPPH 130600Z 17007KT CAVOK 33/10 Q1013 NOSIG


Station Type Date Time Source
YPPH Decoded METAR 2018/12/13 06:00 UTC NOAA

Belmont Perth Airport , Australia (YPPH) 31-56S 115-57E 29M
Dec 13, 2018 - 01:00 AM EST / 2018.12.13 0600 UTC
Wind: from the S (170 degrees) at 8 MPH (7 KT):0
Visibility: greater than 7 mile(s):0
Temperature: 91 F (33 C)
Dew Point: 50 F (10 C)
Relative Humidity: 24%
Pressure (altimeter): 29.91 in. Hg (1013 hPa)
ob: YPPH 130600Z 17007KT CAVOK 33/10 Q1013 NOSIG
cycle: 6

Station Type Date Time Source
YPPH TAF 2018/12/13 06:33 UTC NOAA

TAF YPPH 130514Z 1306/1412 10005KT CAVOK
FM130900 18012KT CAVOK
FM131600 07014G24KT CAVOK
FM140200 02009KT CAVOK
FM140600 22014KT CAVOK


Example: see airport list